sensor_id;sensor_type;location;lat;lon;timestamp;pressure;altitude;pressure_sealevel;temperature;humidity
39769;BME280;38939;47.824;14.642;2024-03-02T00:00:10;95882.94;;;9.38;88.70
39769;BME280;38939;47.824;14.642;2024-03-02T00:01:15;95891.78;;;9.37;88.61
39769;BME280;38939;47.824;14.642;2024-03-02T00:02:17;95880.53;;;9.37;88.62
39769;BME280;38939;47.824;14.642;2024-03-02T00:03:19;95887.94;;;9.40;88.62
39769;BME280;38939;47.824;14.642;2024-03-02T00:04:22;95888.72;;;9.40;88.45
39769;BME280;38939;47.824;14.642;2024-03-02T00:05:23;95882.50;;;9.41;88.16
39769;BME280;38939;47.824;14.642;2024-03-02T00:06:25;95889.28;;;9.43;88.42
39769;BME280;38939;47.824;14.642;2024-03-02T00:07:27;95888.06;;;9.45;88.20
39769;BME280;38939;47.824;14.642;2024-03-02T00:08:29;95894.06;;;9.46;88.24
39769;BME280;38939;47.824;14.642;2024-03-02T00:09:31;95892.69;;;9.43;88.38
39769;BME280;38939;47.824;14.642;2024-03-02T00:10:37;95894.97;;;9.39;88.80
39769;BME280;38939;47.824;14.642;2024-03-02T00:11:42;95895.16;;;9.38;88.96
39769;BME280;38939;47.824;14.642;2024-03-02T00:12:46;95892.78;;;9.36;88.89
39769;BME280;38939;47.824;14.642;2024-03-02T00:13:49;95896.63;;;9.34;88.97
39769;BME280;38939;47.824;14.642;2024-03-02T00:14:54;95893.81;;;9.35;89.10
39769;BME280;38939;47.824;14.642;2024-03-02T00:15:56;95890.75;;;9.38;88.83
39769;BME280;38939;47.824;14.642;2024-03-02T00:16:58;95887.16;;;9.39;88.96
39769;BME280;38939;47.824;14.642;2024-03-02T00:18:00;95891.91;;;9.43;88.96
39769;BME280;38939;47.824;14.642;2024-03-02T00:19:03;95888.06;;;9.45;88.69
39769;BME280;38939;47.824;14.642;2024-03-02T00:20:05;95887.84;;;9.47;88.27
39769;BME280;38939;47.824;14.642;2024-03-02T00:21:11;95887.06;;;9.46;88.22
39769;BME280;38939;47.824;14.642;2024-03-02T00:22:15;95893.06;;;9.47;88.43
39769;BME280;38939;47.824;14.642;2024-03-02T00:23:16;95885.25;;;9.47;88.46
39769;BME280;38939;47.824;14.642;2024-03-02T00:24:21;95883.22;;;9.49;88.45
39769;BME280;38939;47.824;14.642;2024-03-02T00:25:26;95886.38;;;9.51;88.17
39769;BME280;38939;47.824;14.642;2024-03-02T00:26:29;95882.78;;;9.52;88.32
39769;BME280;38939;47.824;14.642;2024-03-02T00:27:31;95880.75;;;9.54;88.12
39769;BME280;38939;47.824;14.642;2024-03-02T00:28:33;95881.53;;;9.54;88.16
39769;BME280;38939;47.824;14.642;2024-03-02T00:29:36;95884.16;;;9.54;87.83
39769;BME280;38939;47.824;14.642;2024-03-02T00:30:57;95891.38;;;9.52;88.29
39769;BME280;38939;47.824;14.642;2024-03-02T00:32:00;95884.56;;;9.51;88.12
39769;BME280;38939;47.824;14.642;2024-03-02T00:33:06;95888.00;;;9.52;88.18
39769;BME280;38939;47.824;14.642;2024-03-02T00:34:08;95884.56;;;9.51;88.01
39769;BME280;38939;47.824;14.642;2024-03-02T00:35:12;95883.56;;;9.52;87.96
39769;BME280;38939;47.824;14.642;2024-03-02T00:36:15;95894.78;;;9.53;88.05
39769;BME280;38939;47.824;14.642;2024-03-02T00:37:18;95881.19;;;9.51;88.46
39769;BME280;38939;47.824;14.642;2024-03-02T00:38:20;95888.41;;;9.49;88.51
39769;BME280;38939;47.824;14.642;2024-03-02T00:39:22;95885.69;;;9.44;88.64
39769;BME280;38939;47.824;14.642;2024-03-02T00:40:27;95893.56;;;9.37;88.90
39769;BME280;38939;47.824;14.642;2024-03-02T00:41:30;95891.19;;;9.35;89.10
39769;BME280;38939;47.824;14.642;2024-03-02T00:42:32;95881.56;;;9.36;89.15
39769;BME280;38939;47.824;14.642;2024-03-02T00:43:44;95890.16;;;9.36;88.86
39769;BME280;38939;47.824;14.642;2024-03-02T00:44:48;95881.94;;;9.39;88.72
39769;BME280;38939;47.824;14.642;2024-03-02T00:45:51;95886.69;;;9.43;88.50
39769;BME280;38939;47.824;14.642;2024-03-02T00:46:53;95875.28;;;9.44;88.55
39769;BME280;38939;47.824;14.642;2024-03-02T00:47:55;95880.47;;;9.44;88.35
39769;BME280;38939;47.824;14.642;2024-03-02T00:48:58;95875.69;;;9.40;88.48
39769;BME280;38939;47.824;14.642;2024-03-02T00:50:00;95874.75;;;9.35;89.11
39769;BME280;38939;47.824;14.642;2024-03-02T00:51:08;95879.06;;;9.29;89.62
39769;BME280;38939;47.824;14.642;2024-03-02T00:52:09;95883.69;;;9.27;89.58
39769;BME280;38939;47.824;14.642;2024-03-02T00:53:11;95884.25;;;9.29;89.84
39769;BME280;38939;47.824;14.642;2024-03-02T00:54:14;95886.63;;;9.31;89.68
39769;BME280;38939;47.824;14.642;2024-03-02T00:55:16;95882.25;;;9.31;89.73
39769;BME280;38939;47.824;14.642;2024-03-02T00:56:18;95884.59;;;9.33;89.62
39769;BME280;38939;47.824;14.642;2024-03-02T00:57:20;95878.41;;;9.34;89.58
39769;BME280;38939;47.824;14.642;2024-03-02T00:58:23;95875.78;;;9.34;89.41
39769;BME280;38939;47.824;14.642;2024-03-02T00:59:26;95874.75;;;9.35;89.26
39769;BME280;38939;47.824;14.642;2024-03-02T01:00:28;95877.16;;;9.36;89.50
39769;BME280;38939;47.824;14.642;2024-03-02T01:01:30;95877.16;;;9.36;89.28
39769;BME280;38939;47.824;14.642;2024-03-02T01:02:32;95867.78;;;9.35;89.40
39769;BME280;38939;47.824;14.642;2024-03-02T01:03:34;95864.13;;;9.36;89.18
39769;BME280;38939;47.824;14.642;2024-03-02T01:04:36;95873.31;;;9.39;88.80
39769;BME280;38939;47.824;14.642;2024-03-02T01:05:44;95868.69;;;9.41;88.88
39769;BME280;38939;47.824;14.642;2024-03-02T01:06:46;95873.66;;;9.43;88.54
39769;BME280;38939;47.824;14.642;2024-03-02T01:07:48;95863.72;;;9.39;88.59
39769;BME280;38939;47.824;14.642;2024-03-02T01:08:50;95869.91;;;9.38;88.69
39769;BME280;38939;47.824;14.642;2024-03-02T01:09:54;95864.13;;;9.36;88.70
39769;BME280;38939;47.824;14.642;2024-03-02T01:10:56;95868.97;;;9.33;88.55
39769;BME280;38939;47.824;14.642;2024-03-02T01:11:58;95866.63;;;9.31;88.63
39769;BME280;38939;47.824;14.642;2024-03-02T01:13:00;95864.44;;;9.28;89.05
39769;BME280;38939;47.824;14.642;2024-03-02T01:14:02;95858.28;;;9.23;89.29
39769;BME280;38939;47.824;14.642;2024-03-02T01:15:04;95858.38;;;9.16;89.97
39769;BME280;38939;47.824;14.642;2024-03-02T01:16:09;95868.78;;;9.16;90.34
39769;BME280;38939;47.824;14.642;2024-03-02T01:17:11;95866.97;;;9.16;90.24
39769;BME280;38939;47.824;14.642;2024-03-02T01:18:13;95868.13;;;9.20;90.20
39769;BME280;38939;47.824;14.642;2024-03-02T01:19:15;95864.06;;;9.25;89.95
39769;BME280;38939;47.824;14.642;2024-03-02T01:20:17;95865.47;;;9.27;89.80
39769;BME280;38939;47.824;14.642;2024-03-02T01:21:19;95867.63;;;9.30;89.69
39769;BME280;38939;47.824;14.642;2024-03-02T01:22:21;95869.81;;;9.33;89.52
39769;BME280;38939;47.824;14.642;2024-03-02T01:23:27;95866.75;;;9.36;89.27
39769;BME280;38939;47.824;14.642;2024-03-02T01:24:29;95866.75;;;9.36;89.02
39769;BME280;38939;47.824;14.642;2024-03-02T01:25:30;95862.31;;;9.37;88.92
39769;BME280;38939;47.824;14.642;2024-03-02T01:26:32;95865.50;;;9.39;88.70
39769;BME280;38939;47.824;14.642;2024-03-02T01:27:34;95869.72;;;9.40;88.50
39769;BME280;38939;47.824;14.642;2024-03-02T01:28:36;95869.34;;;9.36;88.33
39769;BME280;38939;47.824;14.642;2024-03-02T01:29:38;95863.00;;;9.32;88.37
39769;BME280;38939;47.824;14.642;2024-03-02T01:30:40;95862.41;;;9.30;88.62
39769;BME280;38939;47.824;14.642;2024-03-02T01:31:42;95862.41;;;9.30;88.47
39769;BME280;38939;47.824;14.642;2024-03-02T01:32:44;95865.03;;;9.30;88.72
39769;BME280;38939;47.824;14.642;2024-03-02T01:33:46;95864.22;;;9.30;88.49
39769;BME280;38939;47.824;14.642;2024-03-02T01:34:48;95864.66;;;9.27;88.80
39769;BME280;38939;47.824;14.642;2024-03-02T01:35:50;95871.88;;;9.25;89.00
39769;BME280;38939;47.824;14.642;2024-03-02T01:36:52;95860.69;;;9.24;88.99
39769;BME280;38939;47.824;14.642;2024-03-02T01:37:54;95871.97;;;9.18;89.10
39769;BME280;38939;47.824;14.642;2024-03-02T01:38:56;95877.03;;;9.13;89.60
39769;BME280;38939;47.824;14.642;2024-03-02T01:39:57;95870.44;;;9.10;89.91
39769;BME280;38939;47.824;14.642;2024-03-02T01:41:00;95870.25;;;9.12;89.90
39769;BME280;38939;47.824;14.642;2024-03-02T01:42:02;95870.44;;;9.10;89.93
39769;BME280;38939;47.824;14.642;2024-03-02T01:43:04;95874.41;;;9.13;89.94
39769;BME280;38939;47.824;14.642;2024-03-02T01:44:06;95869.22;;;9.13;90.12
39769;BME280;38939;47.824;14.642;2024-03-02T01:45:09;95868.78;;;9.16;89.66
39769;BME280;38939;47.824;14.642;2024-03-02T01:46:11;95869.38;;;9.18;89.69
39769;BME280;38939;47.824;14.642;2024-03-02T01:47:13;95869.59;;;9.16;89.73
39769;BME280;38939;47.824;14.642;2024-03-02T01:48:15;95876.59;;;9.16;89.80
39769;BME280;38939;47.824;14.642;2024-03-02T01:49:17;95861.97;;;9.15;90.07
39769;BME280;38939;47.824;14.642;2024-03-02T01:50:27;95865.41;;;9.15;89.88
39769;BME280;38939;47.824;14.642;2024-03-02T01:51:30;95870.81;;;9.14;89.93
39769;BME280;38939;47.824;14.642;2024-03-02T01:52:31;95863.88;;;9.08;90.30
39769;BME280;38939;47.824;14.642;2024-03-02T01:53:34;95867.47;;;9.07;90.37
39769;BME280;38939;47.824;14.642;2024-03-02T01:54:36;95867.72;;;9.05;90.21
39769;BME280;38939;47.824;14.642;2024-03-02T01:55:38;95868.16;;;9.02;90.52
39769;BME280;38939;47.824;14.642;2024-03-02T01:56:40;95865.75;;;9.00;90.46
39769;BME280;38939;47.824;14.642;2024-03-02T01:57:42;95868.34;;;9.00;90.57
39769;BME280;38939;47.824;14.642;2024-03-02T01:58:44;95871.19;;;8.99;90.73
39769;BME280;38939;47.824;14.642;2024-03-02T01:59:46;95865.19;;;8.98;90.15
39769;BME280;38939;47.824;14.642;2024-03-02T02:00:49;95864.19;;;8.99;90.44
39769;BME280;38939;47.824;14.642;2024-03-02T02:01:52;95861.13;;;9.02;90.28
39769;BME280;38939;47.824;14.642;2024-03-02T02:02:53;95860.13;;;9.04;89.92
39769;BME280;38939;47.824;14.642;2024-03-02T02:03:56;95862.53;;;9.05;90.14
39769;BME280;38939;47.824;14.642;2024-03-02T02:04:58;95858.09;;;9.06;90.11
39769;BME280;38939;47.824;14.642;2024-03-02T02:06:00;95859.69;;;9.07;89.67
39769;BME280;38939;47.824;14.642;2024-03-02T02:07:02;95861.28;;;9.08;89.93
39769;BME280;38939;47.824;14.642;2024-03-02T02:08:04;95854.06;;;9.10;89.48
39769;BME280;38939;47.824;14.642;2024-03-02T02:09:06;95858.03;;;9.12;89.22
39769;BME280;38939;47.824;14.642;2024-03-02T02:10:10;95860.41;;;9.14;89.21
39769;BME280;38939;47.824;14.642;2024-03-02T02:11:14;95858.59;;;9.14;89.05
39769;BME280;38939;47.824;14.642;2024-03-02T02:12:16;95859.16;;;9.16;89.28
39769;BME280;38939;47.824;14.642;2024-03-02T02:13:18;95860.78;;;9.17;89.04
39769;BME280;38939;47.824;14.642;2024-03-02T02:14:20;95853.75;;;9.18;88.73
39769;BME280;38939;47.824;14.642;2024-03-02T02:15:26;95852.59;;;9.14;89.22
39769;BME280;38939;47.824;14.642;2024-03-02T02:16:28;95857.06;;;9.07;89.62
39769;BME280;38939;47.824;14.642;2024-03-02T02:17:30;95854.72;;;9.05;89.94
39769;BME280;38939;47.824;14.642;2024-03-02T02:18:32;95853.13;;;9.04;90.20
39769;BME280;38939;47.824;14.642;2024-03-02T02:19:34;95854.72;;;9.05;90.57
39769;BME280;38939;47.824;14.642;2024-03-02T02:20:36;95846.53;;;9.01;90.37
39769;BME280;38939;47.824;14.642;2024-03-02T02:21:38;95855.91;;;9.02;90.51
39769;BME280;38939;47.824;14.642;2024-03-02T02:22:40;95845.31;;;9.04;90.50
39769;BME280;38939;47.824;14.642;2024-03-02T02:23:41;95853.47;;;9.08;90.45
39769;BME280;38939;47.824;14.642;2024-03-02T02:24:48;95858.22;;;9.11;89.94
39769;BME280;38939;47.824;14.642;2024-03-02T02:25:50;95849.28;;;9.07;89.98
39769;BME280;38939;47.824;14.642;2024-03-02T02:26:51;95858.91;;;9.06;90.03
39769;BME280;38939;47.824;14.642;2024-03-02T02:27:53;95846.09;;;9.05;89.86
39769;BME280;38939;47.824;14.642;2024-03-02T02:28:56;95852.91;;;9.06;89.86
39769;BME280;38939;47.824;14.642;2024-03-02T02:29:58;95845.97;;;8.99;89.85
39769;BME280;38939;47.824;14.642;2024-03-02T02:31:02;95848.66;;;8.93;89.59
39769;BME280;38939;47.824;14.642;2024-03-02T02:32:05;95845.09;;;8.87;89.80
39769;BME280;38939;47.824;14.642;2024-03-02T02:33:07;95835.13;;;8.84;89.68
39769;BME280;38939;47.824;14.642;2024-03-02T02:34:09;95841.75;;;8.80;89.51
39769;BME280;38939;47.824;14.642;2024-03-02T02:35:11;95841.75;;;8.80;89.76
39769;BME280;38939;47.824;14.642;2024-03-02T02:36:14;95839.75;;;8.82;89.74
39769;BME280;38939;47.824;14.642;2024-03-02T02:37:16;95840.41;;;8.77;89.54
39769;BME280;38939;47.824;14.642;2024-03-02T02:38:18;95846.03;;;8.74;89.72
39769;BME280;38939;47.824;14.642;2024-03-02T02:39:22;95843.88;;;8.71;89.68
39769;BME280;38939;47.824;14.642;2024-03-02T02:40:24;95839.38;;;8.60;89.50
39769;BME280;38939;47.824;14.642;2024-03-02T02:41:26;95835.25;;;8.52;89.79
39769;BME280;38939;47.824;14.642;2024-03-02T02:42:27;95836.09;;;8.46;90.38
39769;BME280;38939;47.824;14.642;2024-03-02T02:43:30;95832.72;;;8.46;90.05
39769;BME280;38939;47.824;14.642;2024-03-02T02:44:32;95828.75;;;8.43;90.27
39769;BME280;38939;47.824;14.642;2024-03-02T02:45:34;95832.53;;;8.40;90.58
39769;BME280;38939;47.824;14.642;2024-03-02T02:46:36;95831.72;;;8.40;90.70
39769;BME280;38939;47.824;14.642;2024-03-02T02:47:38;95830.56;;;8.43;90.17
39769;BME280;38939;47.824;14.642;2024-03-02T02:48:40;95835.56;;;8.37;90.17
39769;BME280;38939;47.824;14.642;2024-03-02T02:49:42;95839.13;;;8.43;90.34
39769;BME280;38939;47.824;14.642;2024-03-02T02:50:44;95835.91;;;8.48;90.22
39769;BME280;38939;47.824;14.642;2024-03-02T02:51:45;95836.69;;;8.48;89.66
39769;BME280;38939;47.824;14.642;2024-03-02T02:52:47;95840.09;;;8.49;89.36
39769;BME280;38939;47.824;14.642;2024-03-02T02:53:49;95832.63;;;8.52;89.44
39769;BME280;38939;47.824;14.642;2024-03-02T02:54:51;95840.41;;;8.59;89.68
39769;BME280;38939;47.824;14.642;2024-03-02T02:55:54;95838.16;;;8.63;89.32
39769;BME280;38939;47.824;14.642;2024-03-02T02:56:56;95841.34;;;8.65;89.62
39769;BME280;38939;47.824;14.642;2024-03-02T02:57:58;95842.50;;;8.69;89.14
39769;BME280;38939;47.824;14.642;2024-03-02T02:59:00;95835.28;;;8.71;88.94
39769;BME280;38939;47.824;14.642;2024-03-02T03:00:04;95835.13;;;8.66;89.24
39769;BME280;38939;47.824;14.642;2024-03-02T03:01:11;95836.78;;;8.60;89.18
39769;BME280;38939;47.824;14.642;2024-03-02T03:02:13;95832.38;;;8.60;88.88
39769;BME280;38939;47.824;14.642;2024-03-02T03:03:15;95843.00;;;8.59;89.25
39769;BME280;38939;47.824;14.642;2024-03-02T03:04:17;95837.22;;;8.57;88.82
39769;BME280;38939;47.824;14.642;2024-03-02T03:05:19;95839.03;;;8.56;88.79
39769;BME280;38939;47.824;14.642;2024-03-02T03:06:21;95830.19;;;8.57;88.69
39769;BME280;38939;47.824;14.642;2024-03-02T03:07:23;95837.34;;;8.62;88.46
39769;BME280;38939;47.824;14.642;2024-03-02T03:08:25;95839.75;;;8.64;88.18
39769;BME280;38939;47.824;14.642;2024-03-02T03:09:27;95832.72;;;8.64;88.30
39769;BME280;38939;47.824;14.642;2024-03-02T03:10:28;95836.94;;;8.65;88.13
39769;BME280;38939;47.824;14.642;2024-03-02T03:11:30;95835.69;;;8.68;87.69
39769;BME280;38939;47.824;14.642;2024-03-02T03:12:33;95828.25;;;8.71;87.96
39769;BME280;38939;47.824;14.642;2024-03-02T03:13:35;95839.31;;;8.67;87.76
39769;BME280;38939;47.824;14.642;2024-03-02T03:14:37;95835.19;;;8.59;87.64
39769;BME280;38939;47.824;14.642;2024-03-02T03:15:39;95836.44;;;8.56;87.96
39769;BME280;38939;47.824;14.642;2024-03-02T03:16:41;95836.19;;;8.58;87.69
39769;BME280;38939;47.824;14.642;2024-03-02T03:17:43;95835.41;;;8.57;87.82
39769;BME280;38939;47.824;14.642;2024-03-02T03:18:45;95836.56;;;8.61;87.22
39769;BME280;38939;47.824;14.642;2024-03-02T03:19:47;95835.31;;;8.64;87.52
39769;BME280;38939;47.824;14.642;2024-03-02T03:20:49;95838.31;;;8.68;87.40
39769;BME280;38939;47.824;14.642;2024-03-02T03:21:51;95837.31;;;8.69;87.08
39769;BME280;38939;47.824;14.642;2024-03-02T03:22:53;95836.47;;;8.68;86.86
39769;BME280;38939;47.824;14.642;2024-03-02T03:23:55;95842.25;;;8.70;86.95
39769;BME280;38939;47.824;14.642;2024-03-02T03:24:57;95835.84;;;8.73;86.81
39769;BME280;38939;47.824;14.642;2024-03-02T03:25:59;95838.00;;;8.76;86.81
39769;BME280;38939;47.824;14.642;2024-03-02T03:27:02;95844.25;;;8.75;86.67
39769;BME280;38939;47.824;14.642;2024-03-02T03:28:04;95846.84;;;8.75;86.64
39769;BME280;38939;47.824;14.642;2024-03-02T03:29:06;95837.44;;;8.74;86.96
39769;BME280;38939;47.824;14.642;2024-03-02T03:30:08;95845.59;;;8.77;86.90
39769;BME280;38939;47.824;14.642;2024-03-02T03:31:10;95839.63;;;8.77;86.78
39769;BME280;38939;47.824;14.642;2024-03-02T03:32:12;95844.44;;;8.73;86.78
39769;BME280;38939;47.824;14.642;2024-03-02T03:33:15;95842.50;;;8.69;87.35
39769;BME280;38939;47.824;14.642;2024-03-02T03:34:16;95836.94;;;8.65;87.12
39769;BME280;38939;47.824;14.642;2024-03-02T03:35:18;95841.34;;;8.65;87.38
39769;BME280;38939;47.824;14.642;2024-03-02T03:36:20;95835.31;;;8.64;87.08
39769;BME280;38939;47.824;14.642;2024-03-02T03:37:22;95831.34;;;8.61;87.18
39769;BME280;38939;47.824;14.642;2024-03-02T03:38:25;95837.00;;;8.58;87.17
39769;BME280;38939;47.824;14.642;2024-03-02T03:39:27;95838.00;;;8.57;86.94
39769;BME280;38939;47.824;14.642;2024-03-02T03:40:30;95832.00;;;8.57;87.17
39769;BME280;38939;47.824;14.642;2024-03-02T03:41:32;95833.59;;;8.58;86.75
39769;BME280;38939;47.824;14.642;2024-03-02T03:42:34;95831.00;;;8.58;86.81
39769;BME280;38939;47.824;14.642;2024-03-02T03:43:35;95836.44;;;8.56;87.15
39769;BME280;38939;47.824;14.642;2024-03-02T03:44:37;95835.84;;;8.54;86.55
39769;BME280;38939;47.824;14.642;2024-03-02T03:45:40;95837.84;;;8.52;86.75
39769;BME280;38939;47.824;14.642;2024-03-02T03:46:43;95831.84;;;8.52;86.65
39769;BME280;38939;47.824;14.642;2024-03-02T03:47:45;95834.06;;;8.48;86.63
39769;BME280;38939;47.824;14.642;2024-03-02T03:48:47;95833.88;;;8.50;86.49
39769;BME280;38939;47.824;14.642;2024-03-02T03:49:49;95837.25;;;8.50;85.98
39769;BME280;38939;47.824;14.642;2024-03-02T03:50:51;95831.34;;;8.43;86.30
39769;BME280;38939;47.824;14.642;2024-03-02T03:51:53;95832.34;;;8.42;86.62
39769;BME280;38939;47.824;14.642;2024-03-02T03:52:55;95832.91;;;8.44;86.55
39769;BME280;38939;47.824;14.642;2024-03-02T03:53:56;95839.50;;;8.47;86.30
39769;BME280;38939;47.824;14.642;2024-03-02T03:54:58;95841.88;;;8.48;86.93
39769;BME280;38939;47.824;14.642;2024-03-02T03:56:01;95847.06;;;8.48;86.51
39769;BME280;38939;47.824;14.642;2024-03-02T03:57:03;95844.72;;;8.47;86.73
39769;BME280;38939;47.824;14.642;2024-03-02T03:58:05;95846.72;;;8.45;87.23
39769;BME280;38939;47.824;14.642;2024-03-02T03:59:07;95842.38;;;8.38;87.21
39769;BME280;38939;47.824;14.642;2024-03-02T04:00:08;95843.16;;;8.39;87.70
39769;BME280;38939;47.824;14.642;2024-03-02T04:01:12;95846.53;;;8.39;87.92
39769;BME280;38939;47.824;14.642;2024-03-02T04:02:14;95849.13;;;8.39;87.88
39769;BME280;38939;47.824;14.642;2024-03-02T04:03:16;95848.13;;;8.40;87.88
39769;BME280;38939;47.824;14.642;2024-03-02T04:04:18;95848.50;;;8.44;88.15
39769;BME280;38939;47.824;14.642;2024-03-02T04:05:20;95848.09;;;8.47;88.03
39769;BME280;38939;47.824;14.642;2024-03-02T04:06:22;95846.28;;;8.48;87.01
39769;BME280;38939;47.824;14.642;2024-03-02T04:07:24;95849.09;;;8.46;87.41
39769;BME280;38939;47.824;14.642;2024-03-02T04:08:26;95850.50;;;8.49;87.59
39769;BME280;38939;47.824;14.642;2024-03-02T04:09:27;95842.69;;;8.49;87.36
39769;BME280;38939;47.824;14.642;2024-03-02T04:10:29;95848.69;;;8.49;86.81
39769;BME280;38939;47.824;14.642;2024-03-02T04:11:31;95852.06;;;8.50;86.94
39769;BME280;38939;47.824;14.642;2024-03-02T04:12:34;95850.25;;;8.50;86.54
39769;BME280;38939;47.824;14.642;2024-03-02T04:13:37;95854.25;;;8.53;86.87
39769;BME280;38939;47.824;14.642;2024-03-02T04:14:39;95851.44;;;8.54;86.24
39769;BME280;38939;47.824;14.642;2024-03-02T04:15:44;95853.22;;;8.54;86.71
39769;BME280;38939;47.824;14.642;2024-03-02T04:16:46;95849.25;;;8.51;86.08
39769;BME280;38939;47.824;14.642;2024-03-02T04:17:47;95842.69;;;8.49;86.34
39769;BME280;38939;47.824;14.642;2024-03-02T04:18:49;95843.47;;;8.49;86.04
39769;BME280;38939;47.824;14.642;2024-03-02T04:19:51;95849.69;;;8.48;86.04
39769;BME280;38939;47.824;14.642;2024-03-02T04:20:53;95844.47;;;8.48;86.34
39769;BME280;38939;47.824;14.642;2024-03-02T04:21:55;95843.47;;;8.49;86.29
39769;BME280;38939;47.824;14.642;2024-03-02T04:22:57;95839.84;;;8.50;86.26
39769;BME280;38939;47.824;14.642;2024-03-02T04:23:59;95843.47;;;8.49;85.62
39769;BME280;38939;47.824;14.642;2024-03-02T04:25:01;95841.47;;;8.51;85.90
39769;BME280;38939;47.824;14.642;2024-03-02T04:26:03;95838.88;;;8.51;85.87
39769;BME280;38939;47.824;14.642;2024-03-02T04:27:06;95842.91;;;8.47;86.23
39769;BME280;38939;47.824;14.642;2024-03-02T04:28:08;95844.72;;;8.47;85.87
39769;BME280;38939;47.824;14.642;2024-03-02T04:29:10;95841.31;;;8.46;85.76
39769;BME280;38939;47.824;14.642;2024-03-02T04:30:11;95839.50;;;8.47;85.99
39769;BME280;38939;47.824;14.642;2024-03-02T04:31:14;95835.97;;;8.41;86.30
39769;BME280;38939;47.824;14.642;2024-03-02T04:32:16;95844.56;;;8.41;86.51
39769;BME280;38939;47.824;14.642;2024-03-02T04:33:19;95839.53;;;8.40;86.14
39769;BME280;38939;47.824;14.642;2024-03-02T04:34:21;95836.78;;;8.35;86.12
39769;BME280;38939;47.824;14.642;2024-03-02T04:35:22;95840.81;;;8.31;86.64
39769;BME280;38939;47.824;14.642;2024-03-02T04:36:24;95846.66;;;8.26;86.46
39769;BME280;38939;47.824;14.642;2024-03-02T04:37:26;95840.66;;;8.26;86.59
39769;BME280;38939;47.824;14.642;2024-03-02T04:38:28;95836.03;;;8.28;86.96
39769;BME280;38939;47.824;14.642;2024-03-02T04:39:30;95836.03;;;8.28;87.26
39769;BME280;38939;47.824;14.642;2024-03-02T04:40:32;95836.84;;;8.28;86.99
39769;BME280;38939;47.824;14.642;2024-03-02T04:41:34;95839.09;;;8.25;86.98
39769;BME280;38939;47.824;14.642;2024-03-02T04:42:36;95843.25;;;8.26;87.14
39769;BME280;38939;47.824;14.642;2024-03-02T04:43:38;95835.25;;;8.27;86.88
39769;BME280;38939;47.824;14.642;2024-03-02T04:44:40;95838.06;;;8.26;87.23
39769;BME280;38939;47.824;14.642;2024-03-02T04:45:42;95835.31;;;8.20;86.77
39769;BME280;38939;47.824;14.642;2024-03-02T04:46:44;95835.72;;;8.17;87.09
39769;BME280;38939;47.824;14.642;2024-03-02T04:47:46;95833.34;;;8.16;86.93
39769;BME280;38939;47.824;14.642;2024-03-02T04:48:50;95831.19;;;8.13;87.08
39769;BME280;38939;47.824;14.642;2024-03-02T04:49:57;95831.00;;;8.08;86.82
39769;BME280;38939;47.824;14.642;2024-03-02T04:50:59;95837.16;;;8.13;87.00
39769;BME280;38939;47.824;14.642;2024-03-02T04:52:01;95829.53;;;8.18;87.50
39769;BME280;38939;47.824;14.642;2024-03-02T04:53:03;95835.13;;;8.22;87.07
39769;BME280;38939;47.824;14.642;2024-03-02T04:54:05;95836.31;;;8.19;87.28
39769;BME280;38939;47.824;14.642;2024-03-02T04:55:07;95839.13;;;8.18;86.96
39769;BME280;38939;47.824;14.642;2024-03-02T04:56:18;95843.72;;;8.16;86.73
39769;BME280;38939;47.824;14.642;2024-03-02T04:57:32;95837.38;;;8.12;87.45
39769;BME280;38939;47.824;14.642;2024-03-02T04:58:34;95841.84;;;8.05;86.46
39769;BME280;38939;47.824;14.642;2024-03-02T04:59:36;95835.84;;;8.04;86.41
39769;BME280;38939;47.824;14.642;2024-03-02T05:00:37;95846.84;;;8.06;86.58
39769;BME280;38939;47.824;14.642;2024-03-02T05:01:40;95841.63;;;8.06;86.67
39769;BME280;38939;47.824;14.642;2024-03-02T05:02:42;95842.41;;;8.07;86.33
39769;BME280;38939;47.824;14.642;2024-03-02T05:03:43;95841.41;;;8.08;86.48
39769;BME280;38939;47.824;14.642;2024-03-02T05:04:47;95844.44;;;8.05;86.97
39769;BME280;38939;47.824;14.642;2024-03-02T05:05:50;95841.47;;;8.01;86.26
39769;BME280;38939;47.824;14.642;2024-03-02T05:06:52;95843.06;;;8.02;87.13
39769;BME280;38939;47.824;14.642;2024-03-02T05:07:56;95841.63;;;8.06;87.24
39769;BME280;38939;47.824;14.642;2024-03-02T05:08:58;95843.00;;;8.09;86.44
39769;BME280;38939;47.824;14.642;2024-03-02T05:10:00;95844.38;;;8.11;86.34
39769;BME280;38939;47.824;14.642;2024-03-02T05:11:02;95837.94;;;8.14;86.63
39769;BME280;38939;47.824;14.642;2024-03-02T05:12:22;95837.34;;;8.18;86.20
39769;BME280;38939;47.824;14.642;2024-03-02T05:13:24;95835.72;;;8.17;85.86
39769;BME280;38939;47.824;14.642;2024-03-02T05:14:26;95838.91;;;8.19;86.50
39769;BME280;38939;47.824;14.642;2024-03-02T05:15:28;95828.97;;;8.16;86.15
39769;BME280;38939;47.824;14.642;2024-03-02T05:16:32;95837.34;;;8.18;86.37
39769;BME280;38939;47.824;14.642;2024-03-02T05:17:34;95837.53;;;8.17;86.13
39769;BME280;38939;47.824;14.642;2024-03-02T05:18:37;95835.34;;;8.14;86.65
39769;BME280;38939;47.824;14.642;2024-03-02T05:19:39;95831.38;;;8.11;85.87
39769;BME280;38939;47.824;14.642;2024-03-02T05:20:40;95834.25;;;8.03;86.35
39769;BME280;38939;47.824;14.642;2024-03-02T05:21:42;95833.88;;;7.99;86.33
39769;BME280;38939;47.824;14.642;2024-03-02T05:22:45;95839.44;;;8.03;85.76
39769;BME280;38939;47.824;14.642;2024-03-02T05:23:47;95833.84;;;8.06;85.79
39769;BME280;38939;47.824;14.642;2024-03-02T05:24:49;95835.63;;;8.06;85.97
39769;BME280;38939;47.824;14.642;2024-03-02T05:25:51;95831.84;;;8.01;85.94
39769;BME280;38939;47.824;14.642;2024-03-02T05:26:52;95829.25;;;8.01;86.91
39769;BME280;38939;47.824;14.642;2024-03-02T05:27:54;95835.84;;;8.04;86.73
39769;BME280;38939;47.824;14.642;2024-03-02T05:28:56;95831.84;;;8.01;86.52
39769;BME280;38939;47.824;14.642;2024-03-02T05:29:58;95836.84;;;8.03;85.85
39769;BME280;38939;47.824;14.642;2024-03-02T05:31:01;95833.47;;;8.02;86.21